This is the latest recevied weather packets stored in our database for station/object IZ2MHJ-3. If no packets are shown the sender has not sent any weather packets the latest 10 day(s).
| Time | Temp. | Humidity | Pressure | Rain* | Wind** | Luminosity | Snow |
|---|---|---|---|---|---|---|---|
| 1777575012 | 15.56° C | 51% | 1025.7 hPa | - | - | - | - |
| 1777573812 | 16.11° C | 50% | 1025.4 hPa | - | - | - | - |
| 1777572611 | 16.67° C | 48% | 1025.1 hPa | - | - | - | - |
| 1777571411 | 17.22° C | 47% | 1024.7 hPa | - | - | - | - |
| 1777570211 | 17.78° C | 46% | 1024.6 hPa | - | - | - | - |
| 1777569011 | 18.33° C | 43% | 1024.5 hPa | - | - | - | - |
| 1777567810 | 19.44° C | 40% | 1024.4 hPa | - | - | - | - |
| 1777566610 | 20.56° C | 39% | 1024.3 hPa | - | - | - | - |
| 1777565409 | 21.11° C | 37% | 1024.2 hPa | - | - | - | - |
| 1777564209 | 20° C | 40% | 1024.4 hPa | - | - | - | - |
| 1777563009 | 21.67° C | 36% | 1024.4 hPa | - | - | - | - |
| 1777561809 | 23.33° C | 34% | 1024.3 hPa | - | - | - | - |
| 1777560608 | 21.67° C | 35% | 1024.5 hPa | - | - | - | - |
| 1777559408 | 20° C | 37% | 1024.9 hPa | - | - | - | - |
| 1777558208 | 20° C | 38% | 1025.1 hPa | - | - | - | - |
| 1777557007 | 22.78° C | 34% | 1024.9 hPa | - | - | - | - |
| 1777555807 | 20° C | 37% | 1025.4 hPa | - | - | - | - |
| 1777554607 | 22.78° C | 33% | 1025.4 hPa | - | - | - | - |
| 1777553407 | 20° C | 37% | 1025.8 hPa | - | - | - | - |
| 1777552206 | 20.56° C | 36% | 1025.9 hPa | - | - | - | - |
| 1777551006 | 20° C | 37% | 1025.9 hPa | - | - | - | - |
| 1777549806 | 18.89° C | 37% | 1026.3 hPa | - | - | - | - |
| 1777549250 | 17.78° C | 36% | 1026.6 hPa | - | - | - | - |
| 1777548597 | 18.33° C | 36% | 1026.6 hPa | - | - | - | - |
| 1777547397 | 18.33° C | 36% | 1026.7 hPa | - | - | - | - |
* Rain since midnight (hover to see other rain measurements)
** Current wind speed in m/s (hover to see current wind gust speed)